sensor_id;sensor_type;location;lat;lon;timestamp;pressure;altitude;pressure_sealevel;temperature;humidity
68366;BME280;55283;51.466;5.478;2023-04-24T00:01:10;99859.78;;;22.25;44.93
68366;BME280;55283;51.466;5.478;2023-04-24T00:03:36;99853.97;;;22.28;44.79
68366;BME280;55283;51.466;5.478;2023-04-24T00:06:02;99861.16;;;22.29;44.79
68366;BME280;55283;51.466;5.478;2023-04-24T00:08:27;99864.25;;;22.31;44.89
68366;BME280;55283;51.466;5.478;2023-04-24T00:10:53;99863.47;;;22.31;44.73
68366;BME280;55283;51.466;5.478;2023-04-24T00:13:18;99852.44;;;22.27;44.97
68366;BME280;55283;51.466;5.478;2023-04-24T00:15:44;99864.56;;;22.33;44.68
68366;BME280;55283;51.466;5.478;2023-04-24T00:18:09;99864.25;;;22.31;44.92
68366;BME280;55283;51.466;5.478;2023-04-24T00:20:35;99855.44;;;22.24;44.77
68366;BME280;55283;51.466;5.478;2023-04-24T00:23:01;99863.00;;;22.32;44.87
68366;BME280;55283;51.466;5.478;2023-04-24T00:25:26;99864.25;;;22.31;44.84
68366;BME280;55283;51.466;5.478;2023-04-24T00:27:51;99862.56;;;22.25;45.03
68366;BME280;55283;51.466;5.478;2023-04-24T00:30:17;99861.22;;;22.20;44.82
68366;BME280;55283;51.466;5.478;2023-04-24T00:32:42;99871.63;;;22.29;44.69
68366;BME280;55283;51.466;5.478;2023-04-24T00:35:08;99866.53;;;22.18;44.97
68366;BME280;55283;51.466;5.478;2023-04-24T00:37:33;99870.09;;;22.19;44.94
68366;BME280;55283;51.466;5.478;2023-04-24T00:39:59;99880.25;;;22.16;45.18
68366;BME280;55283;51.466;5.478;2023-04-24T00:42:25;99874.63;;;22.16;45.16
68366;BME280;55283;51.466;5.478;2023-04-24T00:44:51;99873.22;;;22.21;44.82
68366;BME280;55283;51.466;5.478;2023-04-24T00:47:17;99878.66;;;22.24;44.71
68366;BME280;55283;51.466;5.478;2023-04-24T00:49:44;99878.06;;;22.20;44.93
68366;BME280;55283;51.466;5.478;2023-04-24T00:52:09;99876.81;;;22.21;44.94
68366;BME280;55283;51.466;5.478;2023-04-24T00:54:35;99876.81;;;22.21;44.81
68366;BME280;55283;51.466;5.478;2023-04-24T00:57:03;99879.28;;;22.19;44.92
68366;BME280;55283;51.466;5.478;2023-04-24T00:59:28;99879.13;;;22.23;44.82
68366;BME280;55283;51.466;5.478;2023-04-24T01:01:55;99875.06;;;22.24;44.84
68366;BME280;55283;51.466;5.478;2023-04-24T01:04:20;99876.50;;;22.19;44.86
68366;BME280;55283;51.466;5.478;2023-04-24T01:06:46;99882.22;;;22.25;44.77
68366;BME280;55283;51.466;5.478;2023-04-24T01:09:13;99878.34;;;22.22;44.72
68366;BME280;55283;51.466;5.478;2023-04-24T01:11:41;99876.69;;;22.15;44.77
68366;BME280;55283;51.466;5.478;2023-04-24T01:14:08;99874.34;;;22.14;44.89
68366;BME280;55283;51.466;5.478;2023-04-24T01:16:33;99874.63;;;22.16;44.84
68366;BME280;55283;51.466;5.478;2023-04-24T01:18:59;99873.69;;;22.19;44.89
68366;BME280;55283;51.466;5.478;2023-04-24T01:21:26;99871.19;;;22.21;44.70
68366;BME280;55283;51.466;5.478;2023-04-24T01:23:55;99882.59;;;22.18;44.87
68366;BME280;55283;51.466;5.478;2023-04-24T01:26:22;99867.88;;;22.23;44.72
68366;BME280;55283;51.466;5.478;2023-04-24T01:28:48;99868.69;;;22.23;44.47
68366;BME280;55283;51.466;5.478;2023-04-24T01:31:15;99872.44;;;22.20;44.67
68366;BME280;55283;51.466;5.478;2023-04-24T01:33:41;99875.91;;;22.15;44.91
68366;BME280;55283;51.466;5.478;2023-04-24T01:36:08;99879.66;;;22.12;44.66
68366;BME280;55283;51.466;5.478;2023-04-24T01:38:34;99877.94;;;22.14;44.93
68366;BME280;55283;51.466;5.478;2023-04-24T01:41:00;99869.16;;;22.22;44.53
68366;BME280;55283;51.466;5.478;2023-04-24T01:43:26;99878.53;;;22.19;44.69
68366;BME280;55283;51.466;5.478;2023-04-24T01:45:51;99879.03;;;22.17;44.71
68366;BME280;55283;51.466;5.478;2023-04-24T01:48:17;99875.06;;;22.24;44.53
68366;BME280;55283;51.466;5.478;2023-04-24T01:50:42;99884.25;;;22.24;44.61
68366;BME280;55283;51.466;5.478;2023-04-24T01:53:08;99871.00;;;22.25;44.38
68366;BME280;55283;51.466;5.478;2023-04-24T01:55:33;99871.00;;;22.25;44.34
68366;BME280;55283;51.466;5.478;2023-04-24T01:57:59;99874.75;;;22.22;44.47
68366;BME280;55283;51.466;5.478;2023-04-24T02:00:25;99869.78;;;22.17;44.38
68366;BME280;55283;51.466;5.478;2023-04-24T02:02:50;99882.72;;;22.23;44.53
68366;BME280;55283;51.466;5.478;2023-04-24T02:05:16;99887.25;;;22.21;44.43
68366;BME280;55283;51.466;5.478;2023-04-24T02:07:41;99879.13;;;22.23;44.53
68366;BME280;55283;51.466;5.478;2023-04-24T02:10:07;99872.72;;;22.22;44.43
68366;BME280;55283;51.466;5.478;2023-04-24T02:12:33;99884.91;;;22.19;44.51
68366;BME280;55283;51.466;5.478;2023-04-24T02:14:58;99881.97;;;22.13;44.66
68366;BME280;55283;51.466;5.478;2023-04-24T02:17:24;99883.84;;;22.17;44.58
68366;BME280;55283;51.466;5.478;2023-04-24T02:19:49;99879.28;;;22.19;44.56
68366;BME280;55283;51.466;5.478;2023-04-24T02:22:15;99888.50;;;22.20;44.43
68366;BME280;55283;51.466;5.478;2023-04-24T02:24:40;99892.44;;;22.13;44.72
68366;BME280;55283;51.466;5.478;2023-04-24T02:27:06;99886.34;;;22.14;44.79
68366;BME280;55283;51.466;5.478;2023-04-24T02:29:31;99894.28;;;22.16;44.66
68366;BME280;55283;51.466;5.478;2023-04-24T02:31:57;99883.38;;;22.18;44.52
68366;BME280;55283;51.466;5.478;2023-04-24T02:34:22;99888.97;;;22.18;44.45
68366;BME280;55283;51.466;5.478;2023-04-24T02:36:48;99879.16;;;22.13;44.52
68366;BME280;55283;51.466;5.478;2023-04-24T02:39:14;99880.25;;;22.16;44.40
68366;BME280;55283;51.466;5.478;2023-04-24T02:41:41;99886.94;;;22.19;44.37
68366;BME280;55283;51.466;5.478;2023-04-24T02:44:07;99866.53;;;22.18;44.47
68366;BME280;55283;51.466;5.478;2023-04-24T02:46:32;99874.47;;;22.20;44.56
68366;BME280;55283;51.466;5.478;2023-04-24T02:48:57;99872.16;;;22.18;44.51
68366;BME280;55283;51.466;5.478;2023-04-24T02:51:23;99861.09;;;22.14;44.43
68366;BME280;55283;51.466;5.478;2023-04-24T02:53:48;99870.88;;;22.19;44.37
68366;BME280;55283;51.466;5.478;2023-04-24T02:56:14;99865.94;;;22.14;44.43
68366;BME280;55283;51.466;5.478;2023-04-24T02:58:39;99871.06;;;22.15;44.49
68366;BME280;55283;51.466;5.478;2023-04-24T03:01:05;99869.53;;;22.14;44.59
68366;BME280;55283;51.466;5.478;2023-04-24T03:03:30;99868.25;;;22.15;44.37
68366;BME280;55283;51.466;5.478;2023-04-24T03:05:56;99876.22;;;22.17;44.41
68366;BME280;55283;51.466;5.478;2023-04-24T03:08:22;99867.78;;;22.17;44.38
68366;BME280;55283;51.466;5.478;2023-04-24T03:10:48;99867.00;;;22.17;44.25
68366;BME280;55283;51.466;5.478;2023-04-24T03:13:13;99873.09;;;22.15;44.52
68366;BME280;55283;51.466;5.478;2023-04-24T03:15:38;99873.56;;;22.13;44.87
68366;BME280;55283;51.466;5.478;2023-04-24T03:18:04;99871.84;;;22.16;44.37
68366;BME280;55283;51.466;5.478;2023-04-24T03:20:29;99874.63;;;22.16;44.38
68366;BME280;55283;51.466;5.478;2023-04-24T03:22:55;99874.94;;;22.18;44.24
68366;BME280;55283;51.466;5.478;2023-04-24T03:25:22;99871.56;;;22.14;44.40
68366;BME280;55283;51.466;5.478;2023-04-24T03:27:47;99869.03;;;22.16;44.29
68366;BME280;55283;51.466;5.478;2023-04-24T03:30:13;99863.78;;;22.09;44.23
68366;BME280;55283;51.466;5.478;2023-04-24T03:32:38;99875.41;;;22.17;44.38
68366;BME280;55283;51.466;5.478;2023-04-24T03:35:06;99876.97;;;22.18;44.19
68366;BME280;55283;51.466;5.478;2023-04-24T03:37:32;99874.63;;;22.16;44.40
68366;BME280;55283;51.466;5.478;2023-04-24T03:39:57;99868.75;;;22.14;44.18
68366;BME280;55283;51.466;5.478;2023-04-24T03:42:23;99873.88;;;22.15;44.23
68366;BME280;55283;51.466;5.478;2023-04-24T03:44:48;99881.03;;;22.17;44.35
68366;BME280;55283;51.466;5.478;2023-04-24T03:47:13;99864.38;;;22.13;44.32
68366;BME280;55283;51.466;5.478;2023-04-24T03:49:39;99876.69;;;22.15;44.31
68366;BME280;55283;51.466;5.478;2023-04-24T03:52:04;99874.34;;;22.14;44.41
68366;BME280;55283;51.466;5.478;2023-04-24T03:54:30;99872.31;;;22.14;44.37
68366;BME280;55283;51.466;5.478;2023-04-24T03:56:55;99871.56;;;22.14;44.34
68366;BME280;55283;51.466;5.478;2023-04-24T03:59:21;99872.31;;;22.14;44.34
68366;BME280;55283;51.466;5.478;2023-04-24T04:01:46;99862.06;;;22.11;44.33
68366;BME280;55283;51.466;5.478;2023-04-24T04:04:12;99872.47;;;22.11;44.36
68366;BME280;55283;51.466;5.478;2023-04-24T04:06:37;99866.78;;;22.05;44.37
68366;BME280;55283;51.466;5.478;2023-04-24T04:09:03;99863.16;;;22.05;44.69
68366;BME280;55283;51.466;5.478;2023-04-24T04:11:28;99865.31;;;22.10;44.32
68366;BME280;55283;51.466;5.478;2023-04-24T04:13:54;99874.50;;;22.10;44.39
68366;BME280;55283;51.466;5.478;2023-04-24T04:16:20;99874.22;;;22.08;44.47
68366;BME280;55283;51.466;5.478;2023-04-24T04:18:46;99878.41;;;22.13;44.37
68366;BME280;55283;51.466;5.478;2023-04-24T04:21:11;99882.16;;;22.10;44.40
68366;BME280;55283;51.466;5.478;2023-04-24T04:23:37;99888.09;;;22.12;44.20
68366;BME280;55283;51.466;5.478;2023-04-24T04:26:03;99882.16;;;22.10;44.26
68366;BME280;55283;51.466;5.478;2023-04-24T04:28:29;99879.34;;;22.10;44.26
68366;BME280;55283;51.466;5.478;2023-04-24T04:30:57;99887.66;;;22.04;44.26
68366;BME280;55283;51.466;5.478;2023-04-24T04:33:23;99890.28;;;22.08;44.37
68366;BME280;55283;51.466;5.478;2023-04-24T04:35:49;99874.56;;;22.01;44.40
68366;BME280;55283;51.466;5.478;2023-04-24T04:38:15;99887.78;;;22.10;44.27
68366;BME280;55283;51.466;5.478;2023-04-24T04:40:42;99888.53;;;22.10;44.32
68366;BME280;55283;51.466;5.478;2023-04-24T04:43:07;99881.09;;;22.07;44.27
68366;BME280;55283;51.466;5.478;2023-04-24T04:45:33;99894.94;;;22.11;44.25
68366;BME280;55283;51.466;5.478;2023-04-24T04:47:59;99877.81;;;22.09;44.24
68366;BME280;55283;51.466;5.478;2023-04-24T04:50:28;99873.03;;;22.00;44.20
68366;BME280;55283;51.466;5.478;2023-04-24T04:52:54;99878.59;;;22.09;44.22
68366;BME280;55283;51.466;5.478;2023-04-24T04:55:19;99886.88;;;22.04;44.25
68366;BME280;55283;51.466;5.478;2023-04-24T04:57:47;99882.66;;;22.08;44.09
68366;BME280;55283;51.466;5.478;2023-04-24T05:00:13;99899.78;;;22.10;44.13
68366;BME280;55283;51.466;5.478;2023-04-24T05:02:39;99890.44;;;22.04;44.28
68366;BME280;55283;51.466;5.478;2023-04-24T05:05:05;99887.94;;;22.06;44.05
68366;BME280;55283;51.466;5.478;2023-04-24T05:07:31;99895.13;;;22.07;44.35
68366;BME280;55283;51.466;5.478;2023-04-24T05:09:57;99888.72;;;22.07;44.15
68366;BME280;55283;51.466;5.478;2023-04-24T05:12:22;99901.81;;;22.10;44.27
68366;BME280;55283;51.466;5.478;2023-04-24T05:14:47;99894.84;;;22.05;44.30
68366;BME280;55283;51.466;5.478;2023-04-24T05:17:13;99887.34;;;22.02;44.32
68366;BME280;55283;51.466;5.478;2023-04-24T05:19:38;99896.06;;;22.04;44.03
68366;BME280;55283;51.466;5.478;2023-04-24T05:22:04;99899.94;;;22.07;44.20
68366;BME280;55283;51.466;5.478;2023-04-24T05:24:34;99906.06;;;22.05;44.32
68366;BME280;55283;51.466;5.478;2023-04-24T05:27:00;99913.97;;;22.07;44.18
68366;BME280;55283;51.466;5.478;2023-04-24T05:29:25;99919.59;;;22.07;44.18
68366;BME280;55283;51.466;5.478;2023-04-24T05:31:51;99913.97;;;22.07;44.16
68366;BME280;55283;51.466;5.478;2023-04-24T05:34:17;99923.94;;;22.08;44.29
68366;BME280;55283;51.466;5.478;2023-04-24T05:36:43;99922.09;;;22.05;44.52
68366;BME280;55283;51.466;5.478;2023-04-24T05:39:08;99937.69;;;22.06;44.42
68366;BME280;55283;51.466;5.478;2023-04-24T05:41:34;99920.84;;;22.06;44.90
68366;BME280;55283;51.466;5.478;2023-04-24T05:43:59;99930.88;;;21.98;45.31
68366;BME280;55283;51.466;5.478;2023-04-24T05:46:25;99926.97;;;21.95;45.52
68366;BME280;55283;51.466;5.478;2023-04-24T05:48:50;99936.66;;;21.94;45.70
68366;BME280;55283;51.466;5.478;2023-04-24T05:51:16;99928.25;;;21.94;45.76
68366;BME280;55283;51.466;5.478;2023-04-24T05:53:41;99937.84;;;22.02;45.83
68366;BME280;55283;51.466;5.478;2023-04-24T05:56:07;99936.13;;;22.05;46.10
68366;BME280;55283;51.466;5.478;2023-04-24T05:58:32;99945.94;;;22.09;45.96
68366;BME280;55283;51.466;5.478;2023-04-24T06:00:58;99944.25;;;22.03;45.81
68366;BME280;55283;51.466;5.478;2023-04-24T06:03:26;99953.00;;;21.96;45.98
68366;BME280;55283;51.466;5.478;2023-04-24T06:05:52;99952.97;;;22.05;46.17
68366;BME280;55283;51.466;5.478;2023-04-24T06:08:17;99957.47;;;22.11;46.76
68366;BME280;55283;51.466;5.478;2023-04-24T06:10:43;99966.19;;;22.13;46.70
68366;BME280;55283;51.466;5.478;2023-04-24T06:13:08;99963.22;;;22.17;45.99
68366;BME280;55283;51.466;5.478;2023-04-24T06:15:34;99965.22;;;22.17;47.23
68366;BME280;55283;51.466;5.478;2023-04-24T06:17:59;99972.69;;;22.20;47.23
68366;BME280;55283;51.466;5.478;2023-04-24T06:20:25;99981.78;;;22.14;46.48
68366;BME280;55283;51.466;5.478;2023-04-24T06:22:50;99981.47;;;22.12;45.53
68366;BME280;55283;51.466;5.478;2023-04-24T06:25:16;99989.94;;;22.03;45.44
68366;BME280;55283;51.466;5.478;2023-04-24T06:27:41;99980.47;;;21.91;46.08
68366;BME280;55283;51.466;5.478;2023-04-24T06:30:07;99983.88;;;21.96;46.43
68366;BME280;55283;51.466;5.478;2023-04-24T06:32:33;100001.66;;;21.92;46.28
68366;BME280;55283;51.466;5.478;2023-04-24T06:34:58;100003.81;;;21.88;46.65
68366;BME280;55283;51.466;5.478;2023-04-24T06:37:24;100016.44;;;21.84;46.57
68366;BME280;55283;51.466;5.478;2023-04-24T06:39:49;100026.91;;;21.83;47.00
68366;BME280;55283;51.466;5.478;2023-04-24T06:42:15;100018.50;;;21.74;46.79
68366;BME280;55283;51.466;5.478;2023-04-24T06:44:40;100038.75;;;21.78;46.61
68366;BME280;55283;51.466;5.478;2023-04-24T06:47:10;100033.75;;;21.73;46.63
68366;BME280;55283;51.466;5.478;2023-04-24T06:49:36;100049.69;;;21.76;46.52
68366;BME280;55283;51.466;5.478;2023-04-24T06:52:02;100057.44;;;21.81;46.63
68366;BME280;55283;51.466;5.478;2023-04-24T06:54:29;100069.75;;;21.84;46.81
68366;BME280;55283;51.466;5.478;2023-04-24T06:56:54;100086.44;;;21.78;46.94
68366;BME280;55283;51.466;5.478;2023-04-24T06:59:20;100082.53;;;21.76;46.86
68366;BME280;55283;51.466;5.478;2023-04-24T07:01:46;100088.16;;;21.76;46.73
68366;BME280;55283;51.466;5.478;2023-04-24T07:04:11;100093.00;;;21.75;46.70
68366;BME280;55283;51.466;5.478;2023-04-24T07:06:38;100101.25;;;21.79;46.67
68366;BME280;55283;51.466;5.478;2023-04-24T07:09:04;100106.56;;;21.77;46.84
68366;BME280;55283;51.466;5.478;2023-04-24T07:11:30;100117.63;;;21.71;46.87
68366;BME280;55283;51.466;5.478;2023-04-24T07:13:55;100135.06;;;21.75;46.77
68366;BME280;55283;51.466;5.478;2023-04-24T07:16:21;100138.19;;;21.77;46.69
68366;BME280;55283;51.466;5.478;2023-04-24T07:18:46;100136.63;;;21.76;46.52
68366;BME280;55283;51.466;5.478;2023-04-24T07:21:12;100152.53;;;21.79;46.63
68366;BME280;55283;51.466;5.478;2023-04-24T07:23:38;100153.59;;;21.82;46.59
68366;BME280;55283;51.466;5.478;2023-04-24T07:26:03;100168.13;;;21.80;46.36
68366;BME280;55283;51.466;5.478;2023-04-24T07:28:29;100177.78;;;21.79;45.94
68366;BME280;55283;51.466;5.478;2023-04-24T07:30:57;100178.06;;;21.72;46.08
68366;BME280;55283;51.466;5.478;2023-04-24T07:33:23;100183.84;;;21.78;46.41
68366;BME280;55283;51.466;5.478;2023-04-24T07:35:49;100200.84;;;21.74;46.33
68366;BME280;55283;51.466;5.478;2023-04-24T07:38:15;100200.06;;;21.74;46.34
68366;BME280;55283;51.466;5.478;2023-04-24T07:40:40;100208.47;;;21.74;46.37
68366;BME280;55283;51.466;5.478;2023-04-24T07:43:05;100213.44;;;21.69;46.50
68366;BME280;55283;51.466;5.478;2023-04-24T07:45:31;100222.50;;;21.74;46.18
68366;BME280;55283;51.466;5.478;2023-04-24T07:47:58;100220.00;;;21.66;46.35
68366;BME280;55283;51.466;5.478;2023-04-24T07:50:24;100238.53;;;21.73;46.58
68366;BME280;55283;51.466;5.478;2023-04-24T07:52:49;100247.44;;;21.72;46.29
68366;BME280;55283;51.466;5.478;2023-04-24T07:55:15;100257.56;;;21.69;46.63
68366;BME280;55283;51.466;5.478;2023-04-24T07:57:40;100258.31;;;21.69;46.66
68366;BME280;55283;51.466;5.478;2023-04-24T08:00:06;100268.16;;;21.74;46.62
68366;BME280;55283;51.466;5.478;2023-04-24T08:02:33;100271.91;;;21.80;46.46
68366;BME280;55283;51.466;5.478;2023-04-24T08:04:58;100271.75;;;21.75;46.34
68366;BME280;55283;51.466;5.478;2023-04-24T08:07:23;100283.75;;;21.75;46.59
68366;BME280;55283;51.466;5.478;2023-04-24T08:09:49;100297.16;;;21.80;46.36
68366;BME280;55283;51.466;5.478;2023-04-24T08:12:14;100303.22;;;21.79;46.18
68366;BME280;55283;51.466;5.478;2023-04-24T08:14:40;100300.56;;;21.75;46.69
68366;BME280;55283;51.466;5.478;2023-04-24T08:17:05;100313.06;;;21.74;46.78
68366;BME280;55283;51.466;5.478;2023-04-24T08:19:31;100308.53;;;21.67;46.90
68366;BME280;55283;51.466;5.478;2023-04-24T08:21:56;100319.88;;;21.73;46.74
68366;BME280;55283;51.466;5.478;2023-04-24T08:24:22;100318.66;;;21.74;46.88
68366;BME280;55283;51.466;5.478;2023-04-24T08:26:47;100333.00;;;21.76;46.75
68366;BME280;55283;51.466;5.478;2023-04-24T08:29:15;100332.69;;;21.74;47.05
68366;BME280;55283;51.466;5.478;2023-04-24T08:31:41;100351.84;;;21.76;46.99
68366;BME280;55283;51.466;5.478;2023-04-24T08:34:06;100352.50;;;21.80;46.75
68366;BME280;55283;51.466;5.478;2023-04-24T08:36:32;100342.06;;;21.80;46.54
68366;BME280;55283;51.466;5.478;2023-04-24T08:38:57;100338.44;;;21.70;46.69
68366;BME280;55283;51.466;5.478;2023-04-24T08:41:23;100354.53;;;21.79;46.63
68366;BME280;55283;51.466;5.478;2023-04-24T08:43:51;100337.53;;;21.74;46.62
68366;BME280;55283;51.466;5.478;2023-04-24T08:46:17;100351.72;;;21.79;46.70
68366;BME280;55283;51.466;5.478;2023-04-24T08:48:43;100353.88;;;21.75;46.60
68366;BME280;55283;51.466;5.478;2023-04-24T08:51:09;100375.72;;;21.80;46.47
68366;BME280;55283;51.466;5.478;2023-04-24T08:53:35;100379.63;;;21.83;46.44
68366;BME280;55283;51.466;5.478;2023-04-24T08:56:02;100386.94;;;21.80;46.53
68366;BME280;55283;51.466;5.478;2023-04-24T08:58:28;100386.47;;;21.82;46.56
68366;BME280;55283;51.466;5.478;2023-04-24T09:00:57;100388.69;;;21.87;46.48
68366;BME280;55283;51.466;5.478;2023-04-24T09:03:23;100398.19;;;21.89;46.35
68366;BME280;55283;51.466;5.478;2023-04-24T09:05:49;100396.53;;;21.92;46.39
68366;BME280;55283;51.466;5.478;2023-04-24T09:08:19;100407.75;;;21.92;46.17
68366;BME280;55283;51.466;5.478;2023-04-24T09:10:45;100415.69;;;21.93;46.21
68366;BME280;55283;51.466;5.478;2023-04-24T09:13:10;100417.44;;;21.91;46.11
68366;BME280;55283;51.466;5.478;2023-04-24T09:15:40;100412.22;;;21.89;46.22
68366;BME280;55283;51.466;5.478;2023-04-24T09:18:06;100415.50;;;21.88;46.29
68366;BME280;55283;51.466;5.478;2023-04-24T09:20:32;100416.56;;;21.81;46.28
68366;BME280;55283;51.466;5.478;2023-04-24T09:22:58;100430.44;;;21.85;46.06
68366;BME280;55283;51.466;5.478;2023-04-24T09:25:31;100443.06;;;21.80;45.89
68366;BME280;55283;51.466;5.478;2023-04-24T09:28:00;100442.88;;;21.75;45.81
68366;BME280;55283;51.466;5.478;2023-04-24T09:30:27;100450.56;;;21.83;45.76
68366;BME280;55283;51.466;5.478;2023-04-24T09:33:15;100469.56;;;21.79;46.23
68366;BME280;55283;51.466;5.478;2023-04-24T09:35:42;100451.28;;;21.75;46.31
68366;BME280;55283;51.466;5.478;2023-04-24T09:38:10;100471.44;;;21.82;46.12
68366;BME280;55283;51.466;5.478;2023-04-24T09:40:36;100462.50;;;21.75;46.39
68366;BME280;55283;51.466;5.478;2023-04-24T09:43:02;100485.72;;;21.75;46.48
68366;BME280;55283;51.466;5.478;2023-04-24T09:45:38;100492.31;;;21.81;46.72
68366;BME280;55283;51.466;5.478;2023-04-24T09:48:04;100491.72;;;21.86;46.37
68366;BME280;55283;51.466;5.478;2023-04-24T09:50:31;100498.88;;;21.87;46.03
68366;BME280;55283;51.466;5.478;2023-04-24T09:52:59;100481.38;;;21.74;45.51
68366;BME280;55283;51.466;5.478;2023-04-24T09:55:26;100495.59;;;21.80;45.78
68366;BME280;55283;51.466;5.478;2023-04-24T09:57:59;100509.63;;;21.80;45.48
68366;BME280;55283;51.466;5.478;2023-04-24T10:00:32;100499.50;;;21.82;44.49
68366;BME280;55283;51.466;5.478;2023-04-24T10:03:00;100519.59;;;21.81;44.28
68366;BME280;55283;51.466;5.478;2023-04-24T10:05:33;100516.00;;;21.80;44.17
68366;BME280;55283;51.466;5.478;2023-04-24T10:08:03;100507.00;;;21.85;43.42
68366;BME280;55283;51.466;5.478;2023-04-24T10:10:30;100508.44;;;21.90;42.83
68366;BME280;55283;51.466;5.478;2023-04-24T10:12:56;100521.28;;;22.00;42.21
68366;BME280;55283;51.466;5.478;2023-04-24T10:15:22;100508.97;;;21.98;42.27
68366;BME280;55283;51.466;5.478;2023-04-24T10:17:49;100505.19;;;21.91;41.87
68366;BME280;55283;51.466;5.478;2023-04-24T10:20:21;100518.75;;;21.93;41.81
68366;BME280;55283;51.466;5.478;2023-04-24T10:22:52;100515.50;;;21.95;43.03
68366;BME280;55283;51.466;5.478;2023-04-24T10:25:20;100525.31;;;21.99;43.60
68366;BME280;55283;51.466;5.478;2023-04-24T10:27:47;100532.53;;;22.00;44.08
68366;BME280;55283;51.466;5.478;2023-04-24T10:30:13;100526.25;;;21.96;43.68
68366;BME280;55283;51.466;5.478;2023-04-24T10:32:39;100517.53;;;21.94;43.76
68366;BME280;55283;51.466;5.478;2023-04-24T10:35:06;100529.38;;;21.98;44.52
68366;BME280;55283;51.466;5.478;2023-04-24T10:37:42;100553.19;;;21.93;44.68
68366;BME280;55283;51.466;5.478;2023-04-24T10:40:09;100553.88;;;21.98;44.61
68366;BME280;55283;51.466;5.478;2023-04-24T10:42:39;100543.56;;;21.95;44.45
68366;BME280;55283;51.466;5.478;2023-04-24T10:45:22;100553.19;;;21.93;44.51
68366;BME280;55283;51.466;5.478;2023-04-24T10:48:04;100557.25;;;21.92;44.66
68366;BME280;55283;51.466;5.478;2023-04-24T10:50:45;100552.53;;;21.89;44.61
68366;BME280;55283;51.466;5.478;2023-04-24T10:53:19;100570.69;;;21.98;44.32
68366;BME280;55283;51.466;5.478;2023-04-24T10:58:23;100562.97;;;21.89;44.57
68366;BME280;55283;51.466;5.478;2023-04-24T11:00:59;100575.66;;;21.93;44.60
68366;BME280;55283;51.466;5.478;2023-04-24T11:03:35;100584.41;;;21.96;44.43
68366;BME280;55283;51.466;5.478;2023-04-24T11:06:06;100564.75;;;21.96;44.43
68366;BME280;55283;51.466;5.478;2023-04-24T11:08:38;100579.47;;;22.00;44.33
68366;BME280;55283;51.466;5.478;2023-04-24T11:11:11;100575.06;;;21.99;44.54
68366;BME280;55283;51.466;5.478;2023-04-24T11:19:18;100587.06;;;21.99;44.58
68366;BME280;55283;51.466;5.478;2023-04-24T11:24:49;100587.78;;;21.90;44.70
68366;BME280;55283;51.466;5.478;2023-04-24T11:27:18;100594.28;;;22.00;44.68
68366;BME280;55283;51.466;5.478;2023-04-24T11:34:57;100618.41;;;21.98;44.82
68366;BME280;55283;51.466;5.478;2023-04-24T11:37:25;100617.75;;;21.93;44.97
68366;BME280;55283;51.466;5.478;2023-04-24T11:39:55;100615.84;;;21.90;44.93
68366;BME280;55283;51.466;5.478;2023-04-24T11:42:21;100624.47;;;21.96;44.92
68366;BME280;55283;51.466;5.478;2023-04-24T11:44:49;100623.25;;;21.97;44.81
68366;BME280;55283;51.466;5.478;2023-04-24T11:47:15;100631.66;;;21.97;44.85
68366;BME280;55283;51.466;5.478;2023-04-24T11:49:40;100635.25;;;21.98;44.82
68366;BME280;55283;51.466;5.478;2023-04-24T11:52:06;100632.59;;;21.94;45.07
68366;BME280;55283;51.466;5.478;2023-04-24T11:54:31;100638.66;;;21.92;45.22
68366;BME280;55283;51.466;5.478;2023-04-24T11:56:57;100639.91;;;21.91;45.12
68366;BME280;55283;51.466;5.478;2023-04-24T11:59:23;100645.94;;;21.90;45.16
68366;BME280;55283;51.466;5.478;2023-04-24T12:01:49;100648.75;;;21.90;45.12
68366;BME280;55283;51.466;5.478;2023-04-24T12:04:16;100653.66;;;21.99;45.08
68366;BME280;55283;51.466;5.478;2023-04-24T12:09:26;100658.50;;;21.98;45.07
68366;BME280;55283;51.466;5.478;2023-04-24T12:11:58;100656.94;;;21.97;45.28
68366;BME280;55283;51.466;5.478;2023-04-24T12:14:24;100654.56;;;21.96;45.19
68366;BME280;55283;51.466;5.478;2023-04-24T12:16:50;100664.09;;;21.98;44.88
68366;BME280;55283;51.466;5.478;2023-04-24T12:19:22;100659.41;;;21.95;45.16
68366;BME280;55283;51.466;5.478;2023-04-24T12:22:02;100650.34;;;21.91;45.22
68366;BME280;55283;51.466;5.478;2023-04-24T12:24:29;100665.22;;;22.01;44.96
68366;BME280;55283;51.466;5.478;2023-04-24T12:26:56;100670.81;;;22.01;44.81
68366;BME280;55283;51.466;5.478;2023-04-24T12:29:22;100661.75;;;21.97;45.24
68366;BME280;55283;51.466;5.478;2023-04-24T12:31:48;100678.00;;;22.02;44.93
68366;BME280;55283;51.466;5.478;2023-04-24T12:34:23;100671.47;;;22.05;44.63
68366;BME280;55283;51.466;5.478;2023-04-24T12:36:50;100685.06;;;22.06;44.93
68366;BME280;55283;51.466;5.478;2023-04-24T12:39:19;100680.81;;;22.02;45.21
68366;BME280;55283;51.466;5.478;2023-04-24T12:41:57;100678.34;;;22.04;44.99
68366;BME280;55283;51.466;5.478;2023-04-24T12:44:33;100689.22;;;22.02;45.04
68366;BME280;55283;51.466;5.478;2023-04-24T12:47:02;100687.41;;;22.08;44.86
68366;BME280;55283;51.466;5.478;2023-04-24T12:49:31;100689.91;;;22.06;44.82
68366;BME280;55283;51.466;5.478;2023-04-24T12:51:57;100687.41;;;22.08;44.95
68366;BME280;55283;51.466;5.478;2023-04-24T12:54:22;100693.00;;;22.08;45.09
68366;BME280;55283;51.466;5.478;2023-04-24T12:56:47;100693.81;;;22.08;45.06
68366;BME280;55283;51.466;5.478;2023-04-24T12:59:13;100692.09;;;22.11;44.94
68366;BME280;55283;51.466;5.478;2023-04-24T13:01:38;100685.06;;;22.06;44.86
68366;BME280;55283;51.466;5.478;2023-04-24T13:04:05;100690.41;;;22.13;44.99
68366;BME280;55283;51.466;5.478;2023-04-24T13:06:30;100696.81;;;22.14;44.86
68366;BME280;55283;51.466;5.478;2023-04-24T13:08:56;100704.78;;;22.15;45.01
68366;BME280;55283;51.466;5.478;2023-04-24T13:11:23;100704.78;;;22.15;44.98